sensor_id;sensor_type;location;lat;lon;timestamp;P1;durP1;ratioP1;P2;durP2;ratioP2
5871;SDS011;2962;51.312;7.378;2023-02-25T00:01:53;19.20;;;2.33;;
5871;SDS011;2962;51.312;7.378;2023-02-25T00:04:19;10.80;;;1.65;;
5871;SDS011;2962;51.312;7.378;2023-02-25T00:06:45;6.30;;;1.80;;
5871;SDS011;2962;51.312;7.378;2023-02-25T00:09:10;6.07;;;1.70;;
5871;SDS011;2962;51.312;7.378;2023-02-25T00:11:36;9.30;;;1.93;;
5871;SDS011;2962;51.312;7.378;2023-02-25T00:14:02;4.77;;;1.93;;
5871;SDS011;2962;51.312;7.378;2023-02-25T00:16:27;24.13;;;3.40;;
5871;SDS011;2962;51.312;7.378;2023-02-25T00:18:55;36.33;;;5.63;;
5871;SDS011;2962;51.312;7.378;2023-02-25T00:21:21;6.40;;;1.58;;
5871;SDS011;2962;51.312;7.378;2023-02-25T00:23:47;23.45;;;2.72;;
5871;SDS011;2962;51.312;7.378;2023-02-25T00:26:14;4.72;;;2.10;;
5871;SDS011;2962;51.312;7.378;2023-02-25T00:28:41;6.30;;;2.15;;
5871;SDS011;2962;51.312;7.378;2023-02-25T00:31:08;7.40;;;2.42;;
5871;SDS011;2962;51.312;7.378;2023-02-25T00:33:36;12.65;;;3.33;;
5871;SDS011;2962;51.312;7.378;2023-02-25T00:36:06;25.33;;;2.85;;
5871;SDS011;2962;51.312;7.378;2023-02-25T00:38:54;7.68;;;2.58;;
5871;SDS011;2962;51.312;7.378;2023-02-25T00:41:22;8.98;;;1.95;;
5871;SDS011;2962;51.312;7.378;2023-02-25T00:43:54;9.10;;;2.22;;
5871;SDS011;2962;51.312;7.378;2023-02-25T00:46:22;8.50;;;1.80;;
5871;SDS011;2962;51.312;7.378;2023-02-25T00:48:48;10.15;;;1.50;;
5871;SDS011;2962;51.312;7.378;2023-02-25T00:51:15;10.03;;;1.40;;
5871;SDS011;2962;51.312;7.378;2023-02-25T00:53:46;6.22;;;1.70;;
5871;SDS011;2962;51.312;7.378;2023-02-25T00:56:12;12.53;;;1.70;;
5871;SDS011;2962;51.312;7.378;2023-02-25T00:58:39;15.10;;;2.00;;
5871;SDS011;2962;51.312;7.378;2023-02-25T01:01:16;9.90;;;1.63;;
5871;SDS011;2962;51.312;7.378;2023-02-25T01:03:44;9.70;;;2.17;;
5871;SDS011;2962;51.312;7.378;2023-02-25T01:06:09;3.07;;;1.20;;
5871;SDS011;2962;51.312;7.378;2023-02-25T01:08:35;10.43;;;2.60;;
5871;SDS011;2962;51.312;7.378;2023-02-25T01:11:08;13.43;;;1.60;;
5871;SDS011;2962;51.312;7.378;2023-02-25T01:13:39;10.98;;;2.28;;
5871;SDS011;2962;51.312;7.378;2023-02-25T01:16:09;6.70;;;2.00;;
5871;SDS011;2962;51.312;7.378;2023-02-25T01:18:43;10.13;;;1.60;;
5871;SDS011;2962;51.312;7.378;2023-02-25T01:21:14;2.90;;;1.20;;
5871;SDS011;2962;51.312;7.378;2023-02-25T01:23:43;11.32;;;2.00;;
5871;SDS011;2962;51.312;7.378;2023-02-25T01:26:09;4.22;;;1.23;;
5871;SDS011;2962;51.312;7.378;2023-02-25T01:28:34;2.10;;;2.00;;
5871;SDS011;2962;51.312;7.378;2023-02-25T01:31:00;5.50;;;1.90;;
5871;SDS011;2962;51.312;7.378;2023-02-25T01:33:25;8.00;;;2.43;;
5871;SDS011;2962;51.312;7.378;2023-02-25T01:35:50;18.07;;;3.43;;
5871;SDS011;2962;51.312;7.378;2023-02-25T01:38:15;9.40;;;2.37;;
5871;SDS011;2962;51.312;7.378;2023-02-25T01:40:41;8.73;;;2.97;;
5871;SDS011;2962;51.312;7.378;2023-02-25T01:43:07;6.13;;;4.00;;
5871;SDS011;2962;51.312;7.378;2023-02-25T01:45:40;5.35;;;2.40;;
5871;SDS011;2962;51.312;7.378;2023-02-25T01:48:09;5.22;;;3.97;;
5871;SDS011;2962;51.312;7.378;2023-02-25T01:50:43;5.45;;;3.55;;
5871;SDS011;2962;51.312;7.378;2023-02-25T01:53:12;7.88;;;2.95;;
5871;SDS011;2962;51.312;7.378;2023-02-25T01:55:39;12.38;;;5.93;;
5871;SDS011;2962;51.312;7.378;2023-02-25T01:58:06;20.30;;;4.55;;
5871;SDS011;2962;51.312;7.378;2023-02-25T02:00:33;11.93;;;3.97;;
5871;SDS011;2962;51.312;7.378;2023-02-25T02:02:59;14.45;;;4.57;;
5871;SDS011;2962;51.312;7.378;2023-02-25T02:05:29;15.60;;;2.97;;
5871;SDS011;2962;51.312;7.378;2023-02-25T02:08:06;11.77;;;3.67;;
5871;SDS011;2962;51.312;7.378;2023-02-25T02:10:32;8.05;;;3.10;;
5871;SDS011;2962;51.312;7.378;2023-02-25T02:12:58;10.50;;;4.10;;
5871;SDS011;2962;51.312;7.378;2023-02-25T02:15:24;5.13;;;2.40;;
5871;SDS011;2962;51.312;7.378;2023-02-25T02:17:51;16.17;;;4.43;;
5871;SDS011;2962;51.312;7.378;2023-02-25T02:20:24;7.32;;;3.20;;
5871;SDS011;2962;51.312;7.378;2023-02-25T02:23:04;3.35;;;3.05;;
5871;SDS011;2962;51.312;7.378;2023-02-25T02:25:41;15.82;;;3.50;;
5871;SDS011;2962;51.312;7.378;2023-02-25T02:28:31;7.28;;;2.83;;
5871;SDS011;2962;51.312;7.378;2023-02-25T02:31:40;5.40;;;3.72;;
5871;SDS011;2962;51.312;7.378;2023-02-25T02:36:58;17.02;;;4.53;;
5871;SDS011;2962;51.312;7.378;2023-02-25T02:45:26;10.82;;;4.50;;
5871;SDS011;2962;51.312;7.378;2023-02-25T02:47:59;2.85;;;2.15;;
5871;SDS011;2962;51.312;7.378;2023-02-25T02:50:33;22.67;;;4.97;;
5871;SDS011;2962;51.312;7.378;2023-02-25T02:53:04;9.88;;;3.60;;
5871;SDS011;2962;51.312;7.378;2023-02-25T02:55:43;12.65;;;3.72;;
5871;SDS011;2962;51.312;7.378;2023-02-25T02:58:19;20.13;;;4.53;;
5871;SDS011;2962;51.312;7.378;2023-02-25T03:00:49;9.85;;;3.35;;
5871;SDS011;2962;51.312;7.378;2023-02-25T03:03:24;16.98;;;4.40;;
5871;SDS011;2962;51.312;7.378;2023-02-25T03:06:01;10.90;;;3.85;;
5871;SDS011;2962;51.312;7.378;2023-02-25T03:08:30;8.57;;;3.95;;
5871;SDS011;2962;51.312;7.378;2023-02-25T03:10:59;7.68;;;2.67;;
5871;SDS011;2962;51.312;7.378;2023-02-25T03:13:24;8.43;;;3.67;;
5871;SDS011;2962;51.312;7.378;2023-02-25T03:15:50;19.53;;;5.13;;
5871;SDS011;2962;51.312;7.378;2023-02-25T03:18:18;16.98;;;5.00;;
5871;SDS011;2962;51.312;7.378;2023-02-25T03:20:49;15.52;;;5.90;;
5871;SDS011;2962;51.312;7.378;2023-02-25T03:23:21;19.83;;;5.68;;
5871;SDS011;2962;51.312;7.378;2023-02-25T03:25:54;7.25;;;3.35;;
5871;SDS011;2962;51.312;7.378;2023-02-25T03:31:02;15.32;;;4.40;;
5871;SDS011;2962;51.312;7.378;2023-02-25T03:33:57;16.40;;;5.47;;
5871;SDS011;2962;51.312;7.378;2023-02-25T03:36:32;15.23;;;6.05;;
5871;SDS011;2962;51.312;7.378;2023-02-25T03:39:08;23.88;;;6.97;;
5871;SDS011;2962;51.312;7.378;2023-02-25T03:41:38;18.02;;;5.63;;
5871;SDS011;2962;51.312;7.378;2023-02-25T03:44:07;15.50;;;6.00;;
5871;SDS011;2962;51.312;7.378;2023-02-25T03:46:36;13.55;;;5.63;;
5871;SDS011;2962;51.312;7.378;2023-02-25T03:49:06;21.25;;;7.68;;
5871;SDS011;2962;51.312;7.378;2023-02-25T03:51:37;12.98;;;7.85;;
5871;SDS011;2962;51.312;7.378;2023-02-25T03:54:05;20.52;;;9.40;;
5871;SDS011;2962;51.312;7.378;2023-02-25T03:56:44;18.70;;;7.50;;
5871;SDS011;2962;51.312;7.378;2023-02-25T03:59:12;12.48;;;5.75;;
5871;SDS011;2962;51.312;7.378;2023-02-25T04:01:38;16.38;;;7.50;;
5871;SDS011;2962;51.312;7.378;2023-02-25T04:04:04;22.20;;;8.52;;
5871;SDS011;2962;51.312;7.378;2023-02-25T04:06:30;27.13;;;7.87;;
5871;SDS011;2962;51.312;7.378;2023-02-25T04:08:55;20.40;;;7.73;;
5871;SDS011;2962;51.312;7.378;2023-02-25T04:11:22;28.67;;;6.35;;
5871;SDS011;2962;51.312;7.378;2023-02-25T04:13:47;20.70;;;6.40;;
5871;SDS011;2962;51.312;7.378;2023-02-25T04:16:12;16.20;;;6.13;;
5871;SDS011;2962;51.312;7.378;2023-02-25T04:18:38;10.67;;;4.53;;
5871;SDS011;2962;51.312;7.378;2023-02-25T04:21:04;14.57;;;6.13;;
5871;SDS011;2962;51.312;7.378;2023-02-25T04:23:30;31.60;;;7.72;;
5871;SDS011;2962;51.312;7.378;2023-02-25T04:25:56;31.93;;;6.57;;
5871;SDS011;2962;51.312;7.378;2023-02-25T04:28:21;15.63;;;5.97;;
5871;SDS011;2962;51.312;7.378;2023-02-25T04:30:46;16.23;;;6.07;;
5871;SDS011;2962;51.312;7.378;2023-02-25T04:33:12;16.47;;;5.40;;
5871;SDS011;2962;51.312;7.378;2023-02-25T04:35:37;9.97;;;5.43;;
5871;SDS011;2962;51.312;7.378;2023-02-25T04:38:03;16.80;;;6.10;;
5871;SDS011;2962;51.312;7.378;2023-02-25T04:40:28;8.80;;;5.43;;
5871;SDS011;2962;51.312;7.378;2023-02-25T04:42:53;17.03;;;5.30;;
5871;SDS011;2962;51.312;7.378;2023-02-25T04:45:19;18.23;;;5.93;;
5871;SDS011;2962;51.312;7.378;2023-02-25T04:47:50;14.93;;;5.18;;
5871;SDS011;2962;51.312;7.378;2023-02-25T04:50:17;22.17;;;6.32;;
5871;SDS011;2962;51.312;7.378;2023-02-25T04:52:43;16.33;;;5.20;;
5871;SDS011;2962;51.312;7.378;2023-02-25T04:55:08;3.77;;;3.50;;
5871;SDS011;2962;51.312;7.378;2023-02-25T04:57:35;17.00;;;5.17;;
5871;SDS011;2962;51.312;7.378;2023-02-25T05:00:06;20.13;;;5.97;;
5871;SDS011;2962;51.312;7.378;2023-02-25T05:02:43;11.43;;;6.10;;
5871;SDS011;2962;51.312;7.378;2023-02-25T05:05:09;13.32;;;5.15;;
5871;SDS011;2962;51.312;7.378;2023-02-25T05:07:35;16.90;;;4.80;;
5871;SDS011;2962;51.312;7.378;2023-02-25T05:10:00;17.63;;;3.90;;
5871;SDS011;2962;51.312;7.378;2023-02-25T05:12:26;21.33;;;4.60;;
5871;SDS011;2962;51.312;7.378;2023-02-25T05:14:51;18.73;;;3.57;;
5871;SDS011;2962;51.312;7.378;2023-02-25T05:17:16;6.83;;;3.67;;
5871;SDS011;2962;51.312;7.378;2023-02-25T05:19:43;7.75;;;4.72;;
5871;SDS011;2962;51.312;7.378;2023-02-25T05:22:08;7.70;;;3.53;;
5871;SDS011;2962;51.312;7.378;2023-02-25T05:24:34;14.90;;;4.10;;
5871;SDS011;2962;51.312;7.378;2023-02-25T05:27:00;20.73;;;5.10;;
5871;SDS011;2962;51.312;7.378;2023-02-25T05:29:32;17.20;;;5.47;;
5871;SDS011;2962;51.312;7.378;2023-02-25T05:31:58;11.97;;;3.60;;
5871;SDS011;2962;51.312;7.378;2023-02-25T05:34:23;16.10;;;5.17;;
5871;SDS011;2962;51.312;7.378;2023-02-25T05:36:49;18.02;;;5.93;;
5871;SDS011;2962;51.312;7.378;2023-02-25T05:39:14;23.33;;;3.77;;
5871;SDS011;2962;51.312;7.378;2023-02-25T05:41:40;5.50;;;3.70;;
5871;SDS011;2962;51.312;7.378;2023-02-25T05:44:05;12.40;;;4.60;;
5871;SDS011;2962;51.312;7.378;2023-02-25T05:46:31;10.55;;;3.90;;
5871;SDS011;2962;51.312;7.378;2023-02-25T05:48:57;8.97;;;3.20;;
5871;SDS011;2962;51.312;7.378;2023-02-25T05:51:22;21.73;;;4.53;;
5871;SDS011;2962;51.312;7.378;2023-02-25T05:53:48;4.00;;;1.90;;
5871;SDS011;2962;51.312;7.378;2023-02-25T05:56:18;10.80;;;3.50;;
5871;SDS011;2962;51.312;7.378;2023-02-25T05:58:45;22.83;;;3.70;;
5871;SDS011;2962;51.312;7.378;2023-02-25T06:01:13;11.45;;;2.78;;
5871;SDS011;2962;51.312;7.378;2023-02-25T06:03:41;12.57;;;2.28;;
5871;SDS011;2962;51.312;7.378;2023-02-25T06:06:07;4.97;;;1.58;;
5871;SDS011;2962;51.312;7.378;2023-02-25T06:08:36;24.48;;;1.77;;
5871;SDS011;2962;51.312;7.378;2023-02-25T06:11:04;6.25;;;2.10;;
5871;SDS011;2962;51.312;7.378;2023-02-25T06:13:30;14.00;;;3.20;;
5871;SDS011;2962;51.312;7.378;2023-02-25T06:15:55;21.53;;;3.10;;
5871;SDS011;2962;51.312;7.378;2023-02-25T06:18:21;17.83;;;3.73;;
5871;SDS011;2962;51.312;7.378;2023-02-25T06:20:46;9.87;;;2.60;;
5871;SDS011;2962;51.312;7.378;2023-02-25T06:23:11;13.73;;;2.50;;
5871;SDS011;2962;51.312;7.378;2023-02-25T06:25:37;22.70;;;3.33;;
5871;SDS011;2962;51.312;7.378;2023-02-25T06:28:02;19.87;;;3.63;;
5871;SDS011;2962;51.312;7.378;2023-02-25T06:30:28;24.30;;;5.43;;
5871;SDS011;2962;51.312;7.378;2023-02-25T06:32:54;15.07;;;2.28;;
5871;SDS011;2962;51.312;7.378;2023-02-25T06:35:20;21.47;;;4.60;;
5871;SDS011;2962;51.312;7.378;2023-02-25T06:37:56;14.38;;;6.00;;
5871;SDS011;2962;51.312;7.378;2023-02-25T06:40:23;11.48;;;4.30;;
5871;SDS011;2962;51.312;7.378;2023-02-25T06:42:50;11.00;;;3.88;;
5871;SDS011;2962;51.312;7.378;2023-02-25T06:45:15;5.97;;;3.03;;
5871;SDS011;2962;51.312;7.378;2023-02-25T06:47:41;16.73;;;6.50;;
5871;SDS011;2962;51.312;7.378;2023-02-25T06:50:06;27.17;;;5.97;;
5871;SDS011;2962;51.312;7.378;2023-02-25T06:52:32;13.97;;;3.27;;
5871;SDS011;2962;51.312;7.378;2023-02-25T06:54:57;10.23;;;3.43;;
5871;SDS011;2962;51.312;7.378;2023-02-25T06:57:22;29.83;;;4.33;;
5871;SDS011;2962;51.312;7.378;2023-02-25T06:59:48;18.40;;;5.00;;
5871;SDS011;2962;51.312;7.378;2023-02-25T07:02:13;18.80;;;3.83;;
5871;SDS011;2962;51.312;7.378;2023-02-25T07:04:39;12.90;;;3.87;;
5871;SDS011;2962;51.312;7.378;2023-02-25T07:07:04;14.37;;;3.93;;
5871;SDS011;2962;51.312;7.378;2023-02-25T07:09:30;8.03;;;3.40;;
5871;SDS011;2962;51.312;7.378;2023-02-25T07:11:55;11.93;;;4.20;;
5871;SDS011;2962;51.312;7.378;2023-02-25T07:14:21;10.52;;;2.75;;
5871;SDS011;2962;51.312;7.378;2023-02-25T07:16:47;21.07;;;3.07;;
5871;SDS011;2962;51.312;7.378;2023-02-25T07:19:12;6.13;;;2.40;;
5871;SDS011;2962;51.312;7.378;2023-02-25T07:21:40;14.23;;;4.05;;
5871;SDS011;2962;51.312;7.378;2023-02-25T07:24:06;14.23;;;2.92;;
5871;SDS011;2962;51.312;7.378;2023-02-25T07:26:33;11.52;;;3.28;;
5871;SDS011;2962;51.312;7.378;2023-02-25T07:28:58;16.80;;;3.50;;
5871;SDS011;2962;51.312;7.378;2023-02-25T07:31:24;10.73;;;1.97;;
5871;SDS011;2962;51.312;7.378;2023-02-25T07:33:50;20.73;;;3.10;;
5871;SDS011;2962;51.312;7.378;2023-02-25T07:36:17;17.10;;;3.20;;
5871;SDS011;2962;51.312;7.378;2023-02-25T07:38:43;21.23;;;4.50;;
5871;SDS011;2962;51.312;7.378;2023-02-25T07:41:10;26.02;;;3.60;;
5871;SDS011;2962;51.312;7.378;2023-02-25T07:43:38;15.95;;;2.08;;
5871;SDS011;2962;51.312;7.378;2023-02-25T07:46:04;14.43;;;4.73;;
5871;SDS011;2962;51.312;7.378;2023-02-25T07:48:30;10.65;;;2.17;;
5871;SDS011;2962;51.312;7.378;2023-02-25T07:50:55;17.60;;;2.63;;
5871;SDS011;2962;51.312;7.378;2023-02-25T07:53:27;7.03;;;2.90;;
5871;SDS011;2962;51.312;7.378;2023-02-25T07:55:52;23.17;;;4.50;;
5871;SDS011;2962;51.312;7.378;2023-02-25T07:58:18;16.80;;;3.67;;
5871;SDS011;2962;51.312;7.378;2023-02-25T08:00:43;12.07;;;3.30;;
5871;SDS011;2962;51.312;7.378;2023-02-25T08:03:10;11.13;;;2.75;;
5871;SDS011;2962;51.312;7.378;2023-02-25T08:05:36;5.40;;;3.40;;
5871;SDS011;2962;51.312;7.378;2023-02-25T08:08:02;10.27;;;2.87;;
5871;SDS011;2962;51.312;7.378;2023-02-25T08:10:28;14.70;;;3.60;;
5871;SDS011;2962;51.312;7.378;2023-02-25T08:12:53;16.33;;;4.47;;
5871;SDS011;2962;51.312;7.378;2023-02-25T08:15:18;27.57;;;5.80;;
5871;SDS011;2962;51.312;7.378;2023-02-25T08:17:44;17.63;;;6.37;;
5871;SDS011;2962;51.312;7.378;2023-02-25T08:20:09;24.43;;;6.10;;
5871;SDS011;2962;51.312;7.378;2023-02-25T08:22:35;30.53;;;6.27;;
5871;SDS011;2962;51.312;7.378;2023-02-25T08:25:01;47.23;;;16.77;;
5871;SDS011;2962;51.312;7.378;2023-02-25T08:27:26;13.70;;;6.00;;
5871;SDS011;2962;51.312;7.378;2023-02-25T08:29:52;22.40;;;4.93;;
5871;SDS011;2962;51.312;7.378;2023-02-25T08:32:18;20.30;;;5.97;;
5871;SDS011;2962;51.312;7.378;2023-02-25T08:34:43;21.97;;;5.50;;
5871;SDS011;2962;51.312;7.378;2023-02-25T08:37:09;16.27;;;6.33;;
5871;SDS011;2962;51.312;7.378;2023-02-25T08:39:35;13.68;;;6.22;;
5871;SDS011;2962;51.312;7.378;2023-02-25T08:42:01;12.73;;;5.00;;
5871;SDS011;2962;51.312;7.378;2023-02-25T08:44:26;8.40;;;6.20;;
5871;SDS011;2962;51.312;7.378;2023-02-25T08:46:51;18.70;;;6.23;;
5871;SDS011;2962;51.312;7.378;2023-02-25T08:49:17;14.77;;;6.83;;
5871;SDS011;2962;51.312;7.378;2023-02-25T08:51:42;19.30;;;6.37;;
5871;SDS011;2962;51.312;7.378;2023-02-25T08:54:09;14.10;;;5.30;;
5871;SDS011;2962;51.312;7.378;2023-02-25T08:56:36;13.52;;;4.65;;
5871;SDS011;2962;51.312;7.378;2023-02-25T08:59:09;21.17;;;6.38;;
5871;SDS011;2962;51.312;7.378;2023-02-25T09:01:36;17.63;;;5.80;;
5871;SDS011;2962;51.312;7.378;2023-02-25T09:04:14;12.73;;;5.13;;
5871;SDS011;2962;51.312;7.378;2023-02-25T09:06:42;8.85;;;4.00;;
5871;SDS011;2962;51.312;7.378;2023-02-25T09:09:08;11.37;;;3.83;;
5871;SDS011;2962;51.312;7.378;2023-02-25T09:11:33;9.87;;;4.00;;
5871;SDS011;2962;51.312;7.378;2023-02-25T09:13:59;25.43;;;5.57;;
5871;SDS011;2962;51.312;7.378;2023-02-25T09:16:26;17.57;;;5.10;;
5871;SDS011;2962;51.312;7.378;2023-02-25T09:18:52;21.00;;;6.75;;
5871;SDS011;2962;51.312;7.378;2023-02-25T09:21:17;19.37;;;5.70;;
5871;SDS011;2962;51.312;7.378;2023-02-25T09:23:44;12.43;;;4.35;;
5871;SDS011;2962;51.312;7.378;2023-02-25T09:26:10;19.73;;;4.18;;
5871;SDS011;2962;51.312;7.378;2023-02-25T09:28:37;13.70;;;2.95;;
5871;SDS011;2962;51.312;7.378;2023-02-25T09:31:02;15.93;;;4.07;;
5871;SDS011;2962;51.312;7.378;2023-02-25T09:33:29;13.63;;;3.13;;
5871;SDS011;2962;51.312;7.378;2023-02-25T09:36:02;10.88;;;3.10;;
5871;SDS011;2962;51.312;7.378;2023-02-25T09:38:28;15.40;;;3.65;;
5871;SDS011;2962;51.312;7.378;2023-02-25T09:40:54;21.33;;;3.67;;
5871;SDS011;2962;51.312;7.378;2023-02-25T09:45:50;7.38;;;1.90;;
5871;SDS011;2962;51.312;7.378;2023-02-25T09:48:25;8.13;;;2.10;;
5871;SDS011;2962;51.312;7.378;2023-02-25T09:50:56;9.30;;;2.47;;
5871;SDS011;2962;51.312;7.378;2023-02-25T09:53:39;12.63;;;2.33;;
5871;SDS011;2962;51.312;7.378;2023-02-25T09:56:09;5.53;;;1.35;;
5871;SDS011;2962;51.312;7.378;2023-02-25T09:58:42;8.13;;;1.00;;
5871;SDS011;2962;51.312;7.378;2023-02-25T10:06:09;1.05;;;0.63;;
5871;SDS011;2962;51.312;7.378;2023-02-25T10:11:20;4.70;;;0.60;;
5871;SDS011;2962;51.312;7.378;2023-02-25T10:14:08;15.00;;;0.82;;
5871;SDS011;2962;51.312;7.378;2023-02-25T10:16:45;0.45;;;0.45;;
5871;SDS011;2962;51.312;7.378;2023-02-25T10:19:30;4.07;;;0.60;;
5871;SDS011;2962;51.312;7.378;2023-02-25T10:27:34;4.63;;;1.50;;
5871;SDS011;2962;51.312;7.378;2023-02-25T10:30:05;3.35;;;2.00;;
5871;SDS011;2962;51.312;7.378;2023-02-25T10:32:36;3.78;;;1.25;;
5871;SDS011;2962;51.312;7.378;2023-02-25T10:35:19;6.60;;;1.35;;
5871;SDS011;2962;51.312;7.378;2023-02-25T10:37:48;4.32;;;1.35;;
5871;SDS011;2962;51.312;7.378;2023-02-25T10:40:15;3.43;;;1.80;;
5871;SDS011;2962;51.312;7.378;2023-02-25T10:42:44;1.88;;;0.80;;
5871;SDS011;2962;51.312;7.378;2023-02-25T10:45:12;3.70;;;1.00;;
5871;SDS011;2962;51.312;7.378;2023-02-25T10:47:44;3.85;;;1.33;;
5871;SDS011;2962;51.312;7.378;2023-02-25T11:00:55;2.15;;;0.80;;
5871;SDS011;2962;51.312;7.378;2023-02-25T11:03:29;3.83;;;0.90;;
5871;SDS011;2962;51.312;7.378;2023-02-25T11:06:07;14.18;;;1.67;;
5871;SDS011;2962;51.312;7.378;2023-02-25T11:08:36;0.70;;;0.70;;
5871;SDS011;2962;51.312;7.378;2023-02-25T11:11:11;1.17;;;0.80;;
5871;SDS011;2962;51.312;7.378;2023-02-25T11:13:39;2.25;;;0.90;;
5871;SDS011;2962;51.312;7.378;2023-02-25T11:16:05;8.23;;;1.10;;
5871;SDS011;2962;51.312;7.378;2023-02-25T11:18:33;1.05;;;0.80;;
5871;SDS011;2962;51.312;7.378;2023-02-25T11:21:00;1.15;;;1.00;;
5871;SDS011;2962;51.312;7.378;2023-02-25T11:23:32;0.65;;;0.65;;
5871;SDS011;2962;51.312;7.378;2023-02-25T11:26:01;3.75;;;1.20;;
5871;SDS011;2962;51.312;7.378;2023-02-25T11:28:32;3.25;;;1.38;;
5871;SDS011;2962;51.312;7.378;2023-02-25T11:31:33;2.53;;;0.90;;
5871;SDS011;2962;51.312;7.378;2023-02-25T11:33:55;4.00;;;0.90;;
5871;SDS011;2962;51.312;7.378;2023-02-25T11:36:24;3.20;;;1.00;;
5871;SDS011;2962;51.312;7.378;2023-02-25T11:39:14;4.83;;;2.00;;
5871;SDS011;2962;51.312;7.378;2023-02-25T11:41:51;6.05;;;1.05;;
5871;SDS011;2962;51.312;7.378;2023-02-25T11:44:20;2.60;;;1.10;;
5871;SDS011;2962;51.312;7.378;2023-02-25T11:47:33;1.23;;;0.90;;
5871;SDS011;2962;51.312;7.378;2023-02-25T11:49:51;4.32;;;1.50;;
5871;SDS011;2962;51.312;7.378;2023-02-25T11:58:04;4.10;;;1.25;;
5871;SDS011;2962;51.312;7.378;2023-02-25T12:01:02;6.00;;;1.52;;
5871;SDS011;2962;51.312;7.378;2023-02-25T12:14:52;4.20;;;1.30;;
5871;SDS011;2962;51.312;7.378;2023-02-25T12:20:30;3.35;;;1.30;;
5871;SDS011;2962;51.312;7.378;2023-02-25T12:26:58;3.63;;;1.65;;
5871;SDS011;2962;51.312;7.378;2023-02-25T12:32:37;2.13;;;0.90;;
5871;SDS011;2962;51.312;7.378;2023-02-25T12:38:19;4.32;;;1.75;;
5871;SDS011;2962;51.312;7.378;2023-02-25T12:44:14;3.00;;;1.58;;
5871;SDS011;2962;51.312;7.378;2023-02-25T13:03:38;3.40;;;0.80;;
5871;SDS011;2962;51.312;7.378;2023-02-25T13:06:22;5.37;;;1.90;;
5871;SDS011;2962;51.312;7.378;2023-02-25T13:08:52;5.43;;;1.33;;
5871;SDS011;2962;51.312;7.378;2023-02-25T13:24:55;4.37;;;1.13;;
5871;SDS011;2962;51.312;7.378;2023-02-25T13:27:41;1.00;;;0.77;;
5871;SDS011;2962;51.312;7.378;2023-02-25T13:30:23;3.27;;;0.90;;
5871;SDS011;2962;51.312;7.378;2023-02-25T13:35:35;6.10;;;1.10;;
5871;SDS011;2962;51.312;7.378;2023-02-25T13:38:15;3.00;;;1.00;;
5871;SDS011;2962;51.312;7.378;2023-02-25T13:43:32;9.90;;;1.50;;
5871;SDS011;2962;51.312;7.378;2023-02-25T13:46:16;5.73;;;1.20;;
5871;SDS011;2962;51.312;7.378;2023-02-25T13:49:02;4.30;;;2.53;;
5871;SDS011;2962;51.312;7.378;2023-02-25T13:54:49;3.40;;;1.20;;
5871;SDS011;2962;51.312;7.378;2023-02-25T14:05:29;4.50;;;1.00;;
5871;SDS011;2962;51.312;7.378;2023-02-25T14:08:10;3.80;;;0.97;;
5871;SDS011;2962;51.312;7.378;2023-02-25T14:10:53;1.03;;;0.83;;
5871;SDS011;2962;51.312;7.378;2023-02-25T14:19:17;1.40;;;0.90;;
5871;SDS011;2962;51.312;7.378;2023-02-25T14:32:41;1.50;;;1.50;;
5871;SDS011;2962;51.312;7.378;2023-02-25T14:35:22;5.63;;;1.30;;
5871;SDS011;2962;51.312;7.378;2023-02-25T14:38:15;3.33;;;1.40;;
5871;SDS011;2962;51.312;7.378;2023-02-25T14:43:46;1.40;;;1.30;;
5871;SDS011;2962;51.312;7.378;2023-02-25T15:16:58;2.40;;;0.83;;
5871;SDS011;2962;51.312;7.378;2023-02-25T15:22:23;2.20;;;1.37;;
5871;SDS011;2962;51.312;7.378;2023-02-25T15:24:51;2.27;;;1.77;;
5871;SDS011;2962;51.312;7.378;2023-02-25T15:27:40;5.03;;;2.03;;
5871;SDS011;2962;51.312;7.378;2023-02-25T15:30:13;3.03;;;1.70;;
5871;SDS011;2962;51.312;7.378;2023-02-25T15:33:23;1.00;;;0.90;;
5871;SDS011;2962;51.312;7.378;2023-02-25T15:35:51;5.37;;;3.63;;
5871;SDS011;2962;51.312;7.378;2023-02-25T15:38:21;2.43;;;2.10;;
5871;SDS011;2962;51.312;7.378;2023-02-25T15:43:50;0.87;;;0.87;;
5871;SDS011;2962;51.312;7.378;2023-02-25T15:48:44;1.63;;;0.90;;
5871;SDS011;2962;51.312;7.378;2023-02-25T15:51:39;1.33;;;1.23;;
5871;SDS011;2962;51.312;7.378;2023-02-25T15:59:44;4.83;;;1.90;;
5871;SDS011;2962;51.312;7.378;2023-02-25T16:04:50;4.67;;;1.33;;
5871;SDS011;2962;51.312;7.378;2023-02-25T16:07:18;2.73;;;1.20;;
5871;SDS011;2962;51.312;7.378;2023-02-25T16:09:48;1.73;;;1.20;;
5871;SDS011;2962;51.312;7.378;2023-02-25T16:12:18;1.80;;;1.70;;
5871;SDS011;2962;51.312;7.378;2023-02-25T16:14:43;2.20;;;1.27;;
5871;SDS011;2962;51.312;7.378;2023-02-25T16:17:14;1.20;;;1.10;;
5871;SDS011;2962;51.312;7.378;2023-02-25T16:19:42;1.90;;;1.80;;
5871;SDS011;2962;51.312;7.378;2023-02-25T16:22:12;7.70;;;1.80;;
5871;SDS011;2962;51.312;7.378;2023-02-25T16:24:44;1.27;;;1.23;;
5871;SDS011;2962;51.312;7.378;2023-02-25T16:27:25;2.63;;;2.30;;
5871;SDS011;2962;51.312;7.378;2023-02-25T16:30:09;1.00;;;1.00;;
5871;SDS011;2962;51.312;7.378;2023-02-25T16:32:46;3.20;;;1.27;;
5871;SDS011;2962;51.312;7.378;2023-02-25T16:38:04;2.83;;;1.00;;
5871;SDS011;2962;51.312;7.378;2023-02-25T16:40:39;1.70;;;1.60;;
5871;SDS011;2962;51.312;7.378;2023-02-25T16:43:10;4.47;;;1.10;;
5871;SDS011;2962;51.312;7.378;2023-02-25T16:45:40;1.27;;;1.20;;
5871;SDS011;2962;51.312;7.378;2023-02-25T16:48:15;6.37;;;0.80;;
5871;SDS011;2962;51.312;7.378;2023-02-25T16:50:47;4.73;;;0.90;;
5871;SDS011;2962;51.312;7.378;2023-02-25T16:53:17;1.25;;;0.85;;
5871;SDS011;2962;51.312;7.378;2023-02-25T16:55:45;1.00;;;0.80;;
5871;SDS011;2962;51.312;7.378;2023-02-25T17:00:50;5.18;;;1.30;;
5871;SDS011;2962;51.312;7.378;2023-02-25T17:03:19;5.88;;;1.00;;
5871;SDS011;2962;51.312;7.378;2023-02-25T17:06:05;1.75;;;1.00;;
5871;SDS011;2962;51.312;7.378;2023-02-25T17:08:46;1.05;;;1.05;;
5871;SDS011;2962;51.312;7.378;2023-02-25T17:11:16;1.40;;;0.90;;
5871;SDS011;2962;51.312;7.378;2023-02-25T17:13:43;1.63;;;0.90;;
5871;SDS011;2962;51.312;7.378;2023-02-25T17:16:23;5.03;;;1.00;;
5871;SDS011;2962;51.312;7.378;2023-02-25T17:18:53;3.85;;;1.52;;
5871;SDS011;2962;51.312;7.378;2023-02-25T17:21:23;1.48;;;0.98;;
5871;SDS011;2962;51.312;7.378;2023-02-25T17:23:51;2.25;;;0.80;;
5871;SDS011;2962;51.312;7.378;2023-02-25T17:26:17;1.70;;;0.90;;
5871;SDS011;2962;51.312;7.378;2023-02-25T17:28:45;2.83;;;0.70;;
5871;SDS011;2962;51.312;7.378;2023-02-25T17:31:14;2.50;;;0.70;;
5871;SDS011;2962;51.312;7.378;2023-02-25T17:33:49;5.97;;;1.08;;
5871;SDS011;2962;51.312;7.378;2023-02-25T17:36:18;2.05;;;0.95;;
5871;SDS011;2962;51.312;7.378;2023-02-25T17:38:46;0.75;;;0.75;;
5871;SDS011;2962;51.312;7.378;2023-02-25T17:41:16;2.13;;;0.60;;
5871;SDS011;2962;51.312;7.378;2023-02-25T17:43:43;1.58;;;0.85;;
5871;SDS011;2962;51.312;7.378;2023-02-25T17:48:39;1.55;;;0.57;;
5871;SDS011;2962;51.312;7.378;2023-02-25T17:51:07;1.60;;;0.80;;
5871;SDS011;2962;51.312;7.378;2023-02-25T17:53:47;11.80;;;1.20;;
5871;SDS011;2962;51.312;7.378;2023-02-25T17:56:20;5.65;;;1.50;;
5871;SDS011;2962;51.312;7.378;2023-02-25T17:58:51;3.50;;;0.90;;
5871;SDS011;2962;51.312;7.378;2023-02-25T18:01:29;0.95;;;0.95;;
5871;SDS011;2962;51.312;7.378;2023-02-25T18:04:14;4.00;;;1.52;;
5871;SDS011;2962;51.312;7.378;2023-02-25T18:06:47;5.40;;;2.63;;
5871;SDS011;2962;51.312;7.378;2023-02-25T18:11:59;10.48;;;4.18;;
5871;SDS011;2962;51.312;7.378;2023-02-25T18:14:33;20.20;;;6.80;;
5871;SDS011;2962;51.312;7.378;2023-02-25T18:17:00;7.22;;;2.60;;
5871;SDS011;2962;51.312;7.378;2023-02-25T18:19:36;8.32;;;1.88;;
5871;SDS011;2962;51.312;7.378;2023-02-25T18:22:04;3.58;;;1.88;;
5871;SDS011;2962;51.312;7.378;2023-02-25T18:24:32;3.20;;;1.70;;
5871;SDS011;2962;51.312;7.378;2023-02-25T18:27:18;1.52;;;1.40;;
5871;SDS011;2962;51.312;7.378;2023-02-25T18:29:44;1.48;;;1.05;;
5871;SDS011;2962;51.312;7.378;2023-02-25T18:32:09;1.57;;;1.27;;
5871;SDS011;2962;51.312;7.378;2023-02-25T18:34:35;3.83;;;1.30;;
5871;SDS011;2962;51.312;7.378;2023-02-25T18:37:00;1.37;;;1.10;;
5871;SDS011;2962;51.312;7.378;2023-02-25T18:39:25;2.87;;;0.80;;
5871;SDS011;2962;51.312;7.378;2023-02-25T18:41:51;3.07;;;1.10;;